Time;durP1;ratioP1;P1;durP2;ratioP2;P2;SDS_P1;SDS_P2;PMS_P1;PMS_P2;Temp;Humidity;BMP_temperature;BMP_pressure;BME280_temperature;BME280_humidity;BME280_pressure;Samples;Min_cycle;Max_cycle;Signal;HPM_P1;HPM_P2
2023/01/23 00:18:52;;;;;;;30.45;9.38;;;;;;;;;;6148229;23;20099;-61
2023/01/23 00:21:23;;;;;;;20.30;10.35;;;;;;;;;;6148232;23;20021;-74
2023/01/23 00:23:59;;;;;;;19.17;10.15;;;;;;;;;;6147870;23;20025;-58
2023/01/23 00:26:27;;;;;;;18.38;10.15;;;;;;;;;;6147381;23;20080;-55
2023/01/23 00:28:55;;;;;;;18.90;10.48;;;;;;;;;;6143868;23;20064;-53
2023/01/23 00:31:30;;;;;;;21.58;10.38;;;;;;;;;;6147176;23;20471;-52
2023/01/23 00:33:58;;;;;;;20.20;10.38;;;;;;;;;;6144661;23;20177;-54
2023/01/23 00:36:34;;;;;;;20.27;9.60;;;;;;;;;;6148312;23;20060;-52
2023/01/23 00:39:06;;;;;;;18.95;10.07;;;;;;;;;;6148308;23;20026;-52
2023/01/23 00:41:39;;;;;;;;;;;;;;;;;;6147117;23;20029;-49
2023/01/23 00:44:06;;;;;;;17.20;8.98;;;;;;;;;;6148366;23;19999;-61
2023/01/23 00:46:33;;;;;;;15.95;9.35;;;;;;;;;;6148436;23;20026;-61
2023/01/23 00:49:07;;;;;;;18.63;9.18;;;;;;;;;;6149357;23;20045;-61
2023/01/23 00:51:35;;;;;;;18.52;9.68;;;;;;;;;;6148397;23;20118;-61
2023/01/23 00:54:08;;;;;;;17.45;10.20;;;;;;;;;;6148277;23;20027;-60
2023/01/23 00:56:35;;;;;;;16.27;9.20;;;;;;;;;;6149798;23;20021;-60
2023/01/23 00:59:03;;;;;;;17.77;9.57;;;;;;;;;;6148812;23;20030;-63
2023/01/23 01:01:36;;;;;;;17.38;9.07;;;;;;;;;;6148994;23;20104;-60
2023/01/23 01:04:03;;;;;;;18.67;9.45;;;;;;;;;;6149544;23;20030;-61
2023/01/23 01:06:31;;;;;;;17.48;9.52;;;;;;;;;;6150015;23;20064;-61
2023/01/23 01:09:04;;;;;;;15.07;9.07;;;;;;;;;;6149206;23;20538;-61
2023/01/23 01:11:31;;;;;;;;;;;;;;;;;;6150545;23;20022;-61
2023/01/23 01:14:05;;;;;;;16.02;8.30;;;;;;;;;;6150334;23;19948;-61
2023/01/23 01:16:45;;;;;;;16.20;8.82;;;;;;;;;;6154878;23;20427;-48
2023/01/23 01:19:19;;;;;;;15.07;8.50;;;;;;;;;;6177813;23;20017;-48
2023/01/23 01:21:46;;;;;;;17.45;9.88;;;;;;;;;;6179058;23;20017;-45
2023/01/23 01:24:14;;;;;;;17.75;10.02;;;;;;;;;;6179357;23;20031;-47
2023/01/23 01:26:47;;;;;;;15.38;8.90;;;;;;;;;;6179992;23;20021;-46
2023/01/23 01:29:14;;;;;;;14.93;9.73;;;;;;;;;;6179990;23;20164;-46
2023/01/23 01:31:48;;;;;;;16.35;9.32;;;;;;;;;;6179353;23;20048;-47
2023/01/23 01:34:15;;;;;;;14.73;8.77;;;;;;;;;;6178865;23;20280;-46
2023/01/23 01:36:43;;;;;;;20.30;10.52;;;;;;;;;;6179129;23;20395;-63
2023/01/23 01:39:16;;;;;;;15.65;8.85;;;;;;;;;;6179390;23;20124;-74
2023/01/23 01:41:43;;;;;;;17.98;9.55;;;;;;;;;;6179336;23;20021;-74
2023/01/23 01:44:18;;;;;;;17.33;9.95;;;;;;;;;;6180314;23;20132;-75
2023/01/23 01:46:45;;;;;;;17.02;10.45;;;;;;;;;;6178762;23;20396;-75
2023/01/23 01:49:22;;;;;;;18.55;10.70;;;;;;;;;;6177442;23;20112;-75
2023/01/23 01:51:59;;;;;;;17.10;10.40;;;;;;;;;;6179058;23;20056;-74
2023/01/23 01:54:28;;;;;;;18.02;10.73;;;;;;;;;;6179892;23;20021;-69
2023/01/23 01:57:14;;;;;;;18.20;11.02;;;;;;;;;;6179400;23;20131;-48
2023/01/23 01:59:53;;;;;;;15.27;9.93;;;;;;;;;;6177762;23;20101;-51
2023/01/23 02:02:38;;;;;;;16.73;9.30;;;;;;;;;;6179085;23;20100;-52
2023/01/23 02:05:08;;;;;;;19.73;11.20;;;;;;;;;;6178645;23;20048;-49
2023/01/23 02:07:42;;;;;;;18.52;10.23;;;;;;;;;;6177931;23;20462;-50
2023/01/23 02:10:09;;;;;;;17.95;10.02;;;;;;;;;;6177686;23;20477;-48
2023/01/23 02:12:37;;;;;;;20.05;11.18;;;;;;;;;;6178906;23;20035;-51
2023/01/23 02:15:11;;;;;;;18.52;10.48;;;;;;;;;;6178962;23;20063;-61
2023/01/23 02:17:38;;;;;;;18.23;10.70;;;;;;;;;;6174920;23;20082;-61
2023/01/23 02:20:17;;;;;;;17.67;11.00;;;;;;;;;;6179706;23;20432;-61
2023/01/23 02:22:45;;;;;;;21.88;11.93;;;;;;;;;;6179246;23;20055;-61
2023/01/23 02:25:24;;;;;;;16.17;9.73;;;;;;;;;;6178577;23;20092;-60
2023/01/23 02:27:51;;;;;;;19.98;10.30;;;;;;;;;;6178684;23;20105;-61
2023/01/23 02:30:25;;;;;;;17.98;9.77;;;;;;;;;;6179048;23;20063;-74
2023/01/23 02:32:52;;;;;;;19.92;10.43;;;;;;;;;;6178345;23;20021;-63
2023/01/23 02:35:24;;;;;;;17.48;10.27;;;;;;;;;;6178354;23;20025;-52
2023/01/23 02:38:00;;;;;;;16.77;10.02;;;;;;;;;;6178620;23;20088;-53
2023/01/23 02:40:35;;;;;;;16.17;10.13;;;;;;;;;;6169754;23;20424;-49
2023/01/23 02:43:11;;;;;;;16.48;10.05;;;;;;;;;;6179359;23;20024;-51
2023/01/23 02:45:39;;;;;;;16.08;9.65;;;;;;;;;;6174244;23;20481;-50
2023/01/23 02:48:12;;;;;;;15.90;9.98;;;;;;;;;;6177867;23;20021;-49
2023/01/23 02:50:40;;;;;;;15.70;9.43;;;;;;;;;;6179897;23;20064;-63
2023/01/23 02:53:14;;;;;;;17.08;10.00;;;;;;;;;;6178491;23;20056;-74
2023/01/23 02:55:42;;;;;;;16.05;9.90;;;;;;;;;;6177853;23;20396;-75
2023/01/23 03:01:02;;;;;;;15.45;9.55;;;;;;;;;;6178166;23;20610;-74
2023/01/23 03:03:29;;;;;;;18.55;10.55;;;;;;;;;;6179207;23;20029;-75
2023/01/23 03:06:04;;;;;;;15.27;9.48;;;;;;;;;;6179755;23;20044;-75
2023/01/23 03:08:35;;;;;;;18.38;10.88;;;;;;;;;;6177007;23;20023;-56
2023/01/23 03:11:09;;;;;;;17.10;10.32;;;;;;;;;;6177240;23;20423;-75
2023/01/23 03:13:36;;;;;;;18.77;11.43;;;;;;;;;;6178446;23;20024;-74
2023/01/23 03:16:04;;;;;;;19.92;11.60;;;;;;;;;;6177915;23;20021;-77
2023/01/23 03:18:46;;;;;;;19.95;11.55;;;;;;;;;;6176384;23;20024;-76
2023/01/23 03:21:21;;;;;;;21.27;12.70;;;;;;;;;;6178145;23;20029;-76
2023/01/23 03:23:54;;;;;;;27.30;15.07;;;;;;;;;;6178379;23;20419;-75
2023/01/23 03:26:21;;;;;;;23.20;12.82;;;;;;;;;;6178848;23;20047;-68
2023/01/23 03:31:41;;;;;;;24.98;13.10;;;;;;;;;;6177198;23;20025;-50
2023/01/23 03:34:16;;;;;;;23.42;13.48;;;;;;;;;;6179334;23;20092;-48
2023/01/23 03:36:44;;;;;;;26.83;13.65;;;;;;;;;;6178314;23;20025;-49
2023/01/23 03:42:03;;;;;;;29.55;13.20;;;;;;;;;;6178556;23;20497;-51
2023/01/23 03:44:37;;;;;;;23.48;13.15;;;;;;;;;;6178964;23;20025;-60
2023/01/23 03:47:05;;;;;;;24.10;13.77;;;;;;;;;;6177972;23;20478;-63
2023/01/23 03:49:38;;;;;;;24.00;12.80;;;;;;;;;;6174909;23;20227;-62
2023/01/23 03:52:05;;;;;;;25.60;12.43;;;;;;;;;;6179561;23;20101;-63
2023/01/23 03:54:32;;;;;;;19.17;12.27;;;;;;;;;;6177942;23;20099;-63
2023/01/23 03:57:06;;;;;;;24.98;12.88;;;;;;;;;;6178146;23;20072;-63
2023/01/23 03:59:33;;;;;;;20.92;12.30;;;;;;;;;;6178002;23;20091;-63
2023/01/23 04:02:07;;;;;;;22.83;13.57;;;;;;;;;;6178217;23;20027;-61
2023/01/23 04:04:34;;;;;;;25.38;13.85;;;;;;;;;;6177337;23;20493;-60
2023/01/23 04:07:02;;;;;;;21.27;12.18;;;;;;;;;;6178961;23;20109;-60
2023/01/23 04:09:36;;;;;;;20.10;11.70;;;;;;;;;;6177463;23;20522;-61
2023/01/23 04:12:03;;;;;;;16.25;10.65;;;;;;;;;;6178654;23;20103;-61
2023/01/23 04:14:37;;;;;;;17.85;10.85;;;;;;;;;;6173326;23;20099;-61
2023/01/23 04:17:17;;;;;;;14.23;9.13;;;;;;;;;;6173323;23;20029;-61
2023/01/23 04:19:51;;;;;;;17.88;9.57;;;;;;;;;;6175813;23;20096;-61
2023/01/23 04:22:18;;;;;;;20.67;10.65;;;;;;;;;;6177486;23;20202;-76
2023/01/23 04:24:45;;;;;;;17.65;9.40;;;;;;;;;;6178060;23;20415;-76
2023/01/23 04:27:19;;;;;;;20.60;10.02;;;;;;;;;;6178470;23;20355;-75
2023/01/23 04:29:49;;;;;;;18.90;10.27;;;;;;;;;;6179263;23;20056;-74
2023/01/23 04:32:24;;;;;;;13.88;7.80;;;;;;;;;;6181901;23;20550;-75
2023/01/23 04:34:51;;;;;;;19.77;10.50;;;;;;;;;;6183731;23;20105;-75
2023/01/23 04:37:18;;;;;;;21.60;10.68;;;;;;;;;;6182450;23;20500;-74
2023/01/23 04:39:51;;;;;;;19.40;10.85;;;;;;;;;;6173334;23;20063;-63
2023/01/23 04:42:18;;;;;;;21.77;11.82;;;;;;;;;;6180264;23;20079;-53
2023/01/23 04:44:52;;;;;;;21.48;11.27;;;;;;;;;;6181463;23;20099;-54
2023/01/23 04:47:19;;;;;;;21.92;11.50;;;;;;;;;;6180203;23;20109;-51
2023/01/23 04:49:46;;;;;;;21.33;11.38;;;;;;;;;;6181093;23;20060;-51
2023/01/23 04:52:20;;;;;;;20.52;10.93;;;;;;;;;;6180357;23;20132;-53
2023/01/23 04:54:48;;;;;;;24.35;11.55;;;;;;;;;;6181259;23;20097;-54
2023/01/23 04:57:21;;;;;;;19.50;11.00;;;;;;;;;;6179805;23;20033;-60
2023/01/23 04:59:48;;;;;;;20.15;11.13;;;;;;;;;;6180290;23;20023;-54
2023/01/23 05:02:15;;;;;;;20.65;11.30;;;;;;;;;;6181380;23;20067;-53
2023/01/23 05:04:49;;;;;;;21.23;10.65;;;;;;;;;;6180717;23;20021;-53
2023/01/23 05:07:16;;;;;;;18.88;10.63;;;;;;;;;;6181470;23;20762;-52
2023/01/23 05:09:50;;;;;;;19.10;10.98;;;;;;;;;;6182697;23;20056;-51
2023/01/23 05:12:17;;;;;;;19.50;11.65;;;;;;;;;;6180493;23;20555;-54
2023/01/23 05:14:44;;;;;;;18.27;10.70;;;;;;;;;;6181284;23;20104;-51
2023/01/23 05:17:31;;;;;;;19.67;11.05;;;;;;;;;;6179287;23;20067;-46
2023/01/23 05:20:06;;;;;;;19.35;11.18;;;;;;;;;;6177662;23;20357;-48
2023/01/23 05:22:51;;;;;;;22.85;11.85;;;;;;;;;;6180211;23;20534;-47
2023/01/23 05:25:19;;;;;;;19.67;12.13;;;;;;;;;;6176024;23;20071;-46
2023/01/23 05:27:53;;;;;;;21.58;10.88;;;;;;;;;;6180350;23;20017;-49
2023/01/23 05:30:21;;;;;;;29.33;12.07;;;;;;;;;;6180732;23;20064;-49
2023/01/23 05:32:49;;;;;;;20.15;10.85;;;;;;;;;;6181657;23;20521;-47
2023/01/23 05:35:22;;;;;;;20.27;11.32;;;;;;;;;;6180629;23;20511;-59
2023/01/23 05:37:50;;;;;;;22.75;13.02;;;;;;;;;;6179334;23;20108;-50
2023/01/23 05:40:24;;;;;;;20.33;11.93;;;;;;;;;;6155976;23;20096;-46
2023/01/23 05:42:52;;;;;;;24.20;11.30;;;;;;;;;;6176909;23;20097;-46
2023/01/23 05:45:19;;;;;;;21.00;11.52;;;;;;;;;;6177869;23;20027;-50
2023/01/23 05:47:54;;;;;;;22.45;12.05;;;;;;;;;;6176072;23;20021;-48
2023/01/23 05:50:23;;;;;;;24.35;12.18;;;;;;;;;;6174632;23;20466;-47
2023/01/23 05:53:00;;;;;;;19.88;11.32;;;;;;;;;;6177142;23;20021;-63
2023/01/23 05:55:27;;;;;;;20.58;11.60;;;;;;;;;;6176056;23;20366;-50
2023/01/23 05:57:54;;;;;;;20.73;11.43;;;;;;;;;;6179886;23;20077;-50
2023/01/23 06:00:28;;;;;;;22.08;12.68;;;;;;;;;;6178108;23;20052;-53
2023/01/23 06:02:55;;;;;;;19.67;11.35;;;;;;;;;;6180771;23;20024;-52
2023/01/23 06:05:29;;;;;;;22.63;12.07;;;;;;;;;;6180917;23;20071;-50
2023/01/23 06:07:57;;;;;;;;;;;;;;;;;;6179766;23;20071;-52
2023/01/23 06:10:24;;;;;;;23.60;11.40;;;;;;;;;;6180231;23;19995;-52
2023/01/23 06:12:57;;;;;;;19.17;10.63;;;;;;;;;;6180730;23;20553;-60
2023/01/23 06:15:24;;;;;;;23.98;11.95;;;;;;;;;;6173629;23;20124;-61
2023/01/23 06:18:11;;;;;;;23.13;11.82;;;;;;;;;;6177754;23;20472;-60
2023/01/23 06:20:45;;;;;;;22.35;12.55;;;;;;;;;;6177159;23;20462;-61
2023/01/23 06:23:19;;;;;;;25.05;12.52;;;;;;;;;;6179967;23;20035;-61
2023/01/23 06:25:46;;;;;;;21.40;12.05;;;;;;;;;;6179920;23;20107;-61
2023/01/23 06:28:13;;;;;;;20.52;11.95;;;;;;;;;;6178656;23;20438;-60
2023/01/23 06:30:47;;;;;;;22.10;12.25;;;;;;;;;;6153550;23;20025;-48
2023/01/23 06:33:14;;;;;;;21.58;12.35;;;;;;;;;;6178975;23;20044;-54
2023/01/23 06:35:48;;;;;;;24.23;13.15;;;;;;;;;;6179608;23;20105;-54
2023/01/23 06:38:15;;;;;;;22.23;12.30;;;;;;;;;;6179311;23;20021;-53
2023/01/23 06:40:43;;;;;;;23.85;11.98;;;;;;;;;;6178922;23;20108;-51
2023/01/23 06:43:17;;;;;;;20.77;12.30;;;;;;;;;;6178423;23;20553;-53
2023/01/23 06:45:45;;;;;;;20.92;11.80;;;;;;;;;;6178223;23;20025;-54
2023/01/23 06:48:12;;;;;;;23.65;12.45;;;;;;;;;;6179859;23;20736;-69
2023/01/23 06:50:45;;;;;;;25.13;12.98;;;;;;;;;;6178276;23;20104;-61
2023/01/23 06:53:13;;;;;;;21.20;11.57;;;;;;;;;;6179879;23;20025;-61
2023/01/23 06:55:47;;;;;;;20.00;11.27;;;;;;;;;;6180032;23;20055;-61
2023/01/23 06:58:14;;;;;;;20.15;10.32;;;;;;;;;;6178408;23;20108;-61
2023/01/23 07:00:43;;;;;;;19.83;10.38;;;;;;;;;;6178695;23;20079;-61
2023/01/23 07:03:16;;;;;;;23.80;12.27;;;;;;;;;;6179976;23;20056;-61
2023/01/23 07:05:43;;;;;;;;;;;;;;;;;;6180039;23;20018;-63
2023/01/23 07:08:17;;;;;;;29.10;11.38;;;;;;;;;;6179102;23;19999;-54
2023/01/23 07:10:44;;;;;;;21.15;11.32;;;;;;;;;;6178695;23;20691;-63
2023/01/23 07:13:11;;;;;;;24.20;11.93;;;;;;;;;;6179308;23;20029;-63
2023/01/23 07:15:46;;;;;;;21.52;12.07;;;;;;;;;;6177931;23;20163;-63
2023/01/23 07:18:13;;;;;;;20.35;10.48;;;;;;;;;;6176612;23;20101;-63
2023/01/23 07:20:54;;;;;;;21.20;11.27;;;;;;;;;;6177794;23;20462;-64
2023/01/23 07:23:22;;;;;;;18.98;11.75;;;;;;;;;;6179441;23;20049;-63
2023/01/23 07:26:00;;;;;;;19.52;11.23;;;;;;;;;;6179217;23;20103;-63
2023/01/23 07:28:27;;;;;;;18.75;11.02;;;;;;;;;;6180022;23;20024;-53
2023/01/23 07:30:55;;;;;;;20.15;11.30;;;;;;;;;;6178918;23;20068;-51
2023/01/23 07:33:28;;;;;;;21.67;11.40;;;;;;;;;;6178872;23;20055;-53
2023/01/23 07:35:55;;;;;;;24.27;12.02;;;;;;;;;;6179484;23;20099;-55
2023/01/23 07:38:29;;;;;;;17.88;10.30;;;;;;;;;;6178920;23;20505;-55
2023/01/23 07:40:57;;;;;;;18.13;11.38;;;;;;;;;;6178660;23;20025;-53
2023/01/23 07:43:25;;;;;;;20.17;10.90;;;;;;;;;;6178747;23;20648;-54
2023/01/23 07:45:59;;;;;;;20.85;11.30;;;;;;;;;;6180060;23;20418;-64
2023/01/23 07:48:27;;;;;;;18.27;10.85;;;;;;;;;;6179241;23;20489;-63
2023/01/23 07:51:02;;;;;;;19.50;10.35;;;;;;;;;;6172633;23;20056;-63
2023/01/23 07:53:29;;;;;;;19.15;10.55;;;;;;;;;;6179252;23;20029;-64
2023/01/23 07:55:56;;;;;;;20.67;11.13;;;;;;;;;;6175969;23;20104;-63
2023/01/23 07:58:30;;;;;;;19.13;10.90;;;;;;;;;;6178824;23;20048;-63
2023/01/23 08:00:57;;;;;;;19.00;10.80;;;;;;;;;;6177528;23;20100;-58
2023/01/23 08:03:31;;;;;;;18.90;10.43;;;;;;;;;;6178574;23;20025;-63
2023/01/23 08:05:58;;;;;;;17.58;10.40;;;;;;;;;;6176332;23;20091;-60
2023/01/23 08:08:26;;;;;;;15.93;10.18;;;;;;;;;;6178331;23;20017;-61
2023/01/23 08:11:02;;;;;;;18.38;10.52;;;;;;;;;;6177491;23;20128;-61
2023/01/23 08:13:30;;;;;;;18.67;9.90;;;;;;;;;;6178073;23;20107;-61
2023/01/23 08:16:03;;;;;;;22.23;10.55;;;;;;;;;;6177351;23;20395;-61
2023/01/23 08:18:37;;;;;;;16.70;9.68;;;;;;;;;;6174967;23;20072;-61
2023/01/23 08:21:11;;;;;;;13.48;8.80;;;;;;;;;;6176059;23;20035;-63
2023/01/23 08:23:45;;;;;;;15.13;9.48;;;;;;;;;;6178239;23;20442;-60
2023/01/23 08:26:19;;;;;;;9.32;6.57;;;;;;;;;;6177672;23;20052;-60
2023/01/23 08:28:53;;;;;;;10.05;6.97;;;;;;;;;;6177315;23;20404;-59
2023/01/23 08:31:27;;;;;;;14.43;8.63;;;;;;;;;;6177731;23;20473;-59
2023/01/23 08:33:55;;;;;;;11.45;7.40;;;;;;;;;;6178096;23;20029;-59
2023/01/23 08:36:22;;;;;;;;;;;;;;;;;;6177093;23;20132;-59
2023/01/23 08:38:55;;;;;;;10.10;6.63;;;;;;;;;;6177804;23;20338;-53
2023/01/23 08:41:22;;;;;;;8.90;6.00;;;;;;;;;;6177781;23;20129;-63
2023/01/23 08:44:00;;;;;;;10.55;5.90;;;;;;;;;;6177541;23;20100;-63
2023/01/23 08:46:28;;;;;;;8.15;5.68;;;;;;;;;;6176352;23;20028;-63
2023/01/23 08:48:55;;;;;;;9.65;5.85;;;;;;;;;;6176752;23;20033;-63
2023/01/23 08:51:29;;;;;;;8.20;5.80;;;;;;;;;;6177736;23;20045;-64
2023/01/23 08:53:56;;;;;;;9.27;6.00;;;;;;;;;;6177809;23;20467;-63
2023/01/23 08:56:24;;;;;;;7.07;5.25;;;;;;;;;;6178805;23;20053;-70
2023/01/23 08:58:58;;;;;;;7.07;5.45;;;;;;;;;;6178307;23;20049;-46
2023/01/23 09:01:32;;;;;;;8.77;6.30;;;;;;;;;;6176798;23;20096;-47
2023/01/23 09:03:59;;;;;;;7.93;5.15;;;;;;;;;;6175587;23;20471;-48
2023/01/23 09:06:27;;;;;;;9.65;6.10;;;;;;;;;;6178893;23;20095;-46
2023/01/23 09:09:00;;;;;;;9.20;6.60;;;;;;;;;;6177932;23;20095;-47
2023/01/23 09:11:27;;;;;;;9.00;6.22;;;;;;;;;;6178129;23;20067;-47
2023/01/23 09:14:01;;;;;;;11.32;7.55;;;;;;;;;;6177542;23;20121;-48
2023/01/23 09:16:28;;;;;;;8.43;6.13;;;;;;;;;;6178143;23;20055;-48
2023/01/23 09:18:55;;;;;;;;;;;;;;;;;;6147946;23;20033;-60
2023/01/23 09:21:36;;;;;;;9.35;6.50;;;;;;;;;;6150195;23;19923;-61
2023/01/23 09:24:03;;;;;;;10.50;6.65;;;;;;;;;;6149913;23;20025;-61
2023/01/23 09:26:37;;;;;;;9.75;6.57;;;;;;;;;;6149325;23;20060;-61
2023/01/23 09:29:04;;;;;;;9.80;6.32;;;;;;;;;;6150460;23;20426;-60
2023/01/23 09:31:38;;;;;;;11.38;6.18;;;;;;;;;;6148027;23;20141;-61
2023/01/23 09:34:06;;;;;;;7.97;5.93;;;;;;;;;;6149807;23;20029;-63
2023/01/23 09:36:34;;;;;;;9.52;6.05;;;;;;;;;;6149489;23;20612;-55
2023/01/23 09:39:09;;;;;;;9.50;6.15;;;;;;;;;;6150067;23;20030;-55
2023/01/23 09:41:38;;;;;;;10.50;6.50;;;;;;;;;;6148551;23;20101;-54
2023/01/23 09:44:20;;;;;;;8.80;5.80;;;;;;;;;;6150306;23;20028;-54
2023/01/23 09:46:52;;;;;;;8.05;5.50;;;;;;;;;;6148122;23;20438;-52
2023/01/23 09:49:33;;;;;;;7.65;5.47;;;;;;;;;;6147954;23;20104;-54
2023/01/23 09:52:06;;;;;;;7.90;5.28;;;;;;;;;;6149168;23;20060;-51
2023/01/23 09:54:39;;;;;;;8.30;5.40;;;;;;;;;;6145143;23;20022;-71
2023/01/23 09:57:17;;;;;;;8.10;5.97;;;;;;;;;;6149898;23;20105;-70
2023/01/23 09:59:54;;;;;;;7.07;4.95;;;;;;;;;;6146060;23;20126;-71
2023/01/23 10:02:26;;;;;;;8.82;5.88;;;;;;;;;;6149354;23;20018;-71
2023/01/23 10:05:01;;;;;;;7.88;5.65;;;;;;;;;;6144891;23;20029;-70
2023/01/23 10:07:38;;;;;;;8.15;5.85;;;;;;;;;;6149374;23;20021;-71
2023/01/23 10:10:30;;;;;;;9.00;5.65;;;;;;;;;;6146478;23;20060;-71
2023/01/23 10:12:57;;;;;;;7.55;5.32;;;;;;;;;;6147919;23;20061;-64
2023/01/23 10:15:49;;;;;;;9.65;5.78;;;;;;;;;;6148557;23;20068;-64
2023/01/23 10:18:58;;;;;;;7.88;5.43;;;;;;;;;;6158437;23;20099;-64
2023/01/23 10:21:41;;;;;;;8.70;5.18;;;;;;;;;;6136827;23;20028;-65
2023/01/23 10:24:17;;;;;;;7.90;5.50;;;;;;;;;;6179435;23;20060;-64
2023/01/23 10:26:52;;;;;;;7.72;5.35;;;;;;;;;;6177908;23;20400;-64
2023/01/23 10:29:26;;;;;;;7.32;5.55;;;;;;;;;;6178313;23;20017;-54
2023/01/23 10:32:01;;;;;;;8.77;4.80;;;;;;;;;;6177533;23;20028;-48
2023/01/23 10:34:50;;;;;;;9.30;4.95;;;;;;;;;;6176822;23;20036;-49
2023/01/23 10:37:42;;;;;;;8.30;5.63;;;;;;;;;;6179501;23;20017;-50
2023/01/23 10:40:09;;;;;;;8.40;5.70;;;;;;;;;;6179290;23;20025;-56
2023/01/23 10:42:44;;;;;;;6.93;4.97;;;;;;;;;;6177191;23;20025;-52
2023/01/23 10:45:18;;;;;;;8.68;6.07;;;;;;;;;;6179356;23;20101;-54
2023/01/23 10:47:51;;;;;;;7.72;5.38;;;;;;;;;;6178027;23;20104;-49
2023/01/23 10:50:35;;;;;;;7.25;4.85;;;;;;;;;;6179432;23;20046;-52
2023/01/23 10:53:16;;;;;;;9.25;5.03;;;;;;;;;;6179834;23;20075;-54
2023/01/23 10:55:50;;;;;;;10.25;5.07;;;;;;;;;;6177531;23;20096;-56
2023/01/23 10:58:26;;;;;;;6.40;4.35;;;;;;;;;;6178328;23;20530;-55
2023/01/23 11:00:59;;;;;;;4.97;3.85;;;;;;;;;;6177942;23;20486;-55
2023/01/23 11:03:28;;;;;;;6.68;4.35;;;;;;;;;;6178604;23;20100;-53
2023/01/23 11:06:02;;;;;;;7.68;4.22;;;;;;;;;;6179345;23;20091;-64
2023/01/23 11:08:35;;;;;;;5.97;4.43;;;;;;;;;;6178859;23;20036;-53
2023/01/23 11:11:11;;;;;;;7.85;4.38;;;;;;;;;;6178315;23;20028;-56
2023/01/23 11:13:45;;;;;;;8.05;4.57;;;;;;;;;;6176258;23;20067;-56
2023/01/23 11:16:22;;;;;;;6.80;4.45;;;;;;;;;;6178063;23;20104;-56
2023/01/23 11:19:02;;;;;;;4.40;3.40;;;;;;;;;;6176855;23;20068;-56
2023/01/23 11:21:33;;;;;;;6.55;4.35;;;;;;;;;;6178360;23;20100;-57
2023/01/23 11:24:07;;;;;;;;;;;;;;;;;;6179210;23;20096;-72
2023/01/23 11:26:35;;;;;;;6.07;4.40;;;;;;;;;;6177493;23;20317;-71
2023/01/23 11:29:18;;;;;;;6.10;3.92;;;;;;;;;;6177669;23;20028;-71
2023/01/23 11:31:57;;;;;;;5.82;3.67;;;;;;;;;;6177537;23;20064;-71
2023/01/23 11:34:27;;;;;;;5.40;3.53;;;;;;;;;;6179245;23;20351;-70
2023/01/23 11:37:08;;;;;;;4.47;3.58;;;;;;;;;;6177736;23;20140;-71
2023/01/23 11:39:52;;;;;;;5.63;3.97;;;;;;;;;;6178336;23;20061;-72
2023/01/23 11:42:20;;;;;;;5.15;3.63;;;;;;;;;;6178385;23;20024;-60
2023/01/23 11:44:55;;;;;;;5.80;3.78;;;;;;;;;;6178299;23;20040;-71
2023/01/23 11:47:41;;;;;;;4.65;3.63;;;;;;;;;;6178188;23;20074;-71
2023/01/23 11:50:22;;;;;;;7.43;3.53;;;;;;;;;;6179019;23;20064;-71
2023/01/23 11:53:01;;;;;;;4.55;3.50;;;;;;;;;;6178481;23;20050;-72
2023/01/23 11:55:37;;;;;;;5.07;3.20;;;;;;;;;;6178193;23;20028;-69
2023/01/23 11:58:20;;;;;;;6.30;3.72;;;;;;;;;;6178973;23;20025;-69
2023/01/23 12:01:02;;;;;;;3.95;3.10;;;;;;;;;;6178546;23;20025;-61
2023/01/23 12:03:35;;;;;;;4.38;3.33;;;;;;;;;;6173001;23;20413;-63
2023/01/23 12:06:09;;;;;;;3.80;3.15;;;;;;;;;;6176258;23;20522;-64
2023/01/23 12:09:16;;;;;;;4.40;3.10;;;;;;;;;;6174093;23;20048;-65
2023/01/23 12:12:15;;;;;;;4.90;3.30;;;;;;;;;;6178586;23;20025;-62
2023/01/23 12:14:45;;;;;;;9.93;3.10;;;;;;;;;;6143199;23;20021;-63
2023/01/23 12:17:28;;;;;;;5.20;3.20;;;;;;;;;;6177164;23;20513;-64
2023/01/23 12:20:12;;;;;;;4.53;2.97;;;;;;;;;;6175396;23;20079;-60
2023/01/23 12:22:49;;;;;;;3.85;2.80;;;;;;;;;;6176791;23;20037;-46
2023/01/23 12:25:30;;;;;;;3.97;2.83;;;;;;;;;;6176918;23;20470;-44
2023/01/23 12:28:19;;;;;;;4.80;3.00;;;;;;;;;;6178192;23;20029;-47
2023/01/23 12:30:59;;;;;;;6.50;3.45;;;;;;;;;;6177378;23;20025;-47
2023/01/23 12:33:44;;;;;;;4.80;3.53;;;;;;;;;;6176183;23;20044;-47
2023/01/23 12:36:23;;;;;;;5.00;3.30;;;;;;;;;;6177963;23;20060;-49
2023/01/23 12:39:20;;;;;;;4.20;2.85;;;;;;;;;;6178675;23;20414;-51
2023/01/23 12:41:50;;;;;;;6.15;3.58;;;;;;;;;;6176948;23;20646;-56
2023/01/23 12:44:30;;;;;;;3.80;2.85;;;;;;;;;;6178764;23;20100;-57
2023/01/23 12:46:57;;;;;;;4.43;3.03;;;;;;;;;;6177676;23;20170;-56
2023/01/23 12:49:37;;;;;;;8.48;3.63;;;;;;;;;;6177047;23;20051;-56
2023/01/23 12:52:23;;;;;;;6.45;3.10;;;;;;;;;;6175082;23;20092;-54
2023/01/23 12:54:57;;;;;;;7.18;3.20;;;;;;;;;;6179833;23;20064;-61
2023/01/23 12:57:42;;;;;;;4.68;3.10;;;;;;;;;;6176371;23;20543;-52
2023/01/23 13:00:45;;;;;;;4.68;3.40;;;;;;;;;;6180115;23;20456;-51
2023/01/23 13:03:25;;;;;;;5.68;3.53;;;;;;;;;;6177571;23;20033;-52
2023/01/23 13:06:20;;;;;;;5.43;4.67;;;;;;;;;;6181085;23;20347;-50
2023/01/23 13:09:06;;;;;;;5.72;3.70;;;;;;;;;;6178797;23;20048;-53
2023/01/23 13:12:05;;;;;;;5.25;3.47;;;;;;;;;;6178987;23;20017;-51
2023/01/23 13:14:32;;;;;;;6.13;3.47;;;;;;;;;;6164780;23;20409;-64
2023/01/23 13:17:25;;;;;;;4.47;3.65;;;;;;;;;;6178054;23;20025;-68
2023/01/23 13:23:19;;;;;;;5.47;3.78;;;;;;;;;;6177808;23;20025;-71
2023/01/23 13:25:46;;;;;;;6.40;3.63;;;;;;;;;;6179682;23;20057;-72
2023/01/23 13:28:34;;;;;;;5.60;3.90;;;;;;;;;;6179572;23;20132;-72
2023/01/23 13:31:27;;;;;;;6.68;4.45;;;;;;;;;;6179615;23;20351;-72
2023/01/23 13:34:01;;;;;;;6.60;3.97;;;;;;;;;;6180064;23;20467;-60
2023/01/23 13:36:41;;;;;;;7.93;4.25;;;;;;;;;;6178272;23;20021;-54
2023/01/23 13:39:15;;;;;;;8.85;4.50;;;;;;;;;;6179043;23;20354;-51
2023/01/23 13:41:46;;;;;;;6.57;4.72;;;;;;;;;;6178740;23;20362;-55
2023/01/23 13:44:22;;;;;;;7.22;4.32;;;;;;;;;;6179561;23;20363;-55
2023/01/23 13:50:29;;;;;;;5.10;3.55;;;;;;;;;;6030907;23;20035;-61
2023/01/23 13:56:38;;;;;;;6.65;4.55;;;;;;;;;;5810756;24;20030;-48
2023/01/23 13:59:30;;;;;;;5.57;4.40;;;;;;;;;;5706828;25;20043;-47
2023/01/23 14:05:31;;;;;;;11.15;5.85;;;;;;;;;;5558059;25;20522;-46
2023/01/23 14:08:21;;;;;;;10.52;5.70;;;;;;;;;;5581967;25;20054;-50
2023/01/23 14:11:02;;;;;;;8.35;5.65;;;;;;;;;;5581264;25;20470;-61
2023/01/23 14:13:50;;;;;;;8.70;6.00;;;;;;;;;;5594603;25;21126;-57
2023/01/23 14:16:31;;;;;;;8.35;6.00;;;;;;;;;;5610703;25;20034;-56
2023/01/23 14:19:33;;;;;;;9.05;6.18;;;;;;;;;;5709909;25;20032;-53
2023/01/23 14:22:21;;;;;;;9.48;5.88;;;;;;;;;;5704666;25;20064;-57
2023/01/23 14:24:59;;;;;;;10.63;5.40;;;;;;;;;;5706393;25;20029;-57
2023/01/23 14:27:32;;;;;;;8.18;6.13;;;;;;;;;;5728165;25;20476;-64
2023/01/23 14:30:23;;;;;;;8.38;6.03;;;;;;;;;;5750000;24;20081;-71
2023/01/23 14:32:50;;;;;;;15.30;7.30;;;;;;;;;;5812708;24;20026;-72
2023/01/23 14:35:26;;;;;;;9.70;6.38;;;;;;;;;;5865131;24;20062;-71
2023/01/23 14:37:54;;;;;;;9.93;6.07;;;;;;;;;;5863223;24;20026;-71
2023/01/23 14:40:27;;;;;;;10.18;6.00;;;;;;;;;;5880081;24;20468;-72
2023/01/23 14:43:06;;;;;;;8.55;6.28;;;;;;;;;;5917945;24;20043;-72
2023/01/23 14:45:44;;;;;;;8.20;5.72;;;;;;;;;;5923246;24;20048;-61
2023/01/23 14:48:14;;;;;;;10.10;6.82;;;;;;;;;;6001527;23;20149;-60
2023/01/23 14:50:47;;;;;;;8.18;5.95;;;;;;;;;;6087887;23;20030;-61
2023/01/23 14:53:15;;;;;;;10.07;5.97;;;;;;;;;;6119015;23;20026;-60
2023/01/23 14:55:45;;;;;;;10.63;7.00;;;;;;;;;;6118396;23;20033;-61
2023/01/23 14:58:23;;;;;;;9.85;6.80;;;;;;;;;;6120381;23;20022;-61
2023/01/23 15:00:52;;;;;;;10.30;5.55;;;;;;;;;;6118294;23;20053;-61
2023/01/23 15:03:39;;;;;;;14.27;7.82;;;;;;;;;;6118940;23;20018;-60
2023/01/23 15:06:19;;;;;;;9.93;6.88;;;;;;;;;;6118962;23;20054;-72
2023/01/23 15:08:48;;;;;;;10.00;7.38;;;;;;;;;;6118714;23;20090;-46
2023/01/23 15:11:24;;;;;;;11.35;7.97;;;;;;;;;;6119238;23;20136;-47
2023/01/23 15:13:54;;;;;;;11.48;5.90;;;;;;;;;;6117812;23;20502;-48
2023/01/23 15:16:30;;;;;;;9.73;7.10;;;;;;;;;;6119093;23;20030;-51
2023/01/23 15:19:05;;;;;;;12.73;8.32;;;;;;;;;;6141102;23;20525;-48
2023/01/23 15:21:45;;;;;;;11.48;7.82;;;;;;;;;;6178000;23;20060;-49
2023/01/23 15:24:12;;;;;;;12.27;8.38;;;;;;;;;;6178815;23;20324;-53
2023/01/23 15:26:57;;;;;;;11.18;8.00;;;;;;;;;;6178838;23;20029;-62
2023/01/23 15:29:32;;;;;;;11.80;8.38;;;;;;;;;;6177849;23;20032;-61
2023/01/23 15:32:00;;;;;;;12.98;8.75;;;;;;;;;;6179494;23;20021;-61
2023/01/23 15:34:34;;;;;;;13.27;9.07;;;;;;;;;;6177593;23;20060;-61
2023/01/23 15:37:10;;;;;;;10.43;7.20;;;;;;;;;;6177277;23;20052;-60
2023/01/23 15:39:53;;;;;;;14.02;8.13;;;;;;;;;;6176776;23;20092;-60
2023/01/23 15:42:21;;;;;;;13.52;8.93;;;;;;;;;;6179092;23;20064;-48
2023/01/23 15:44:54;;;;;;;12.63;8.90;;;;;;;;;;6178009;23;20056;-64
2023/01/23 15:47:22;;;;;;;13.73;8.63;;;;;;;;;;6178878;23;20024;-64
2023/01/23 15:49:55;;;;;;;13.07;7.85;;;;;;;;;;6178683;23;20096;-65